Ardenvoir, Washington
Current Conditions -  °F | °C
As of 4:55 AM on Thursday 27 Nov 2014 (Local Time) from KEAT Reporting Station
Overcast Overcast  
Wind Chill: 37°   Ceiling: 300
Heat Index: 37°   Visibility: NA
Dew Point: 34°   Wind: 0mph
Humidity: 89%   Direction: NA
Pressure: 29.88"   Gusts: NA
Location:  47.74°N, 120.37°W
Report Text: KEAT 271255Z AUTO 00000KT OVC003 03/01 A2988 RMK AO2 SLP126 T00280011
Loading
Personal Weather Stations






























Interactive Weather Map New forecast layout! Learn more

10-Day Weather Forecast

Advertisements
Track Severe Weather on mobile